sensor_id;sensor_type;location;lat;lon;timestamp;temperature;humidity
25342;DHT22;13298;48.792;9.154;2024-02-28T00:02:00;7.20;99.90
25342;DHT22;13298;48.792;9.154;2024-02-28T00:04:26;7.20;99.90
25342;DHT22;13298;48.792;9.154;2024-02-28T00:06:52;7.20;99.90
25342;DHT22;13298;48.792;9.154;2024-02-28T00:09:17;7.20;99.90
25342;DHT22;13298;48.792;9.154;2024-02-28T00:11:44;7.20;99.90
25342;DHT22;13298;48.792;9.154;2024-02-28T00:14:10;7.20;99.90
25342;DHT22;13298;48.792;9.154;2024-02-28T00:16:39;7.20;99.90
25342;DHT22;13298;48.792;9.154;2024-02-28T00:19:09;7.10;99.90
25342;DHT22;13298;48.792;9.154;2024-02-28T00:21:36;7.10;99.90
25342;DHT22;13298;48.792;9.154;2024-02-28T00:24:02;7.10;99.90
25342;DHT22;13298;48.792;9.154;2024-02-28T00:26:28;7.20;99.90
25342;DHT22;13298;48.792;9.154;2024-02-28T00:28:54;7.20;99.90
25342;DHT22;13298;48.792;9.154;2024-02-28T00:31:19;7.10;99.90
25342;DHT22;13298;48.792;9.154;2024-02-28T00:33:47;7.10;99.90
25342;DHT22;13298;48.792;9.154;2024-02-28T00:36:13;7.10;99.90
25342;DHT22;13298;48.792;9.154;2024-02-28T00:38:39;7.00;99.90
25342;DHT22;13298;48.792;9.154;2024-02-28T00:41:05;7.00;99.90
25342;DHT22;13298;48.792;9.154;2024-02-28T00:43:30;6.90;99.90
25342;DHT22;13298;48.792;9.154;2024-02-28T00:45:56;6.90;99.90
25342;DHT22;13298;48.792;9.154;2024-02-28T00:48:23;6.90;99.90
25342;DHT22;13298;48.792;9.154;2024-02-28T00:50:49;6.90;99.90
25342;DHT22;13298;48.792;9.154;2024-02-28T00:53:15;6.90;99.90
25342;DHT22;13298;48.792;9.154;2024-02-28T00:55:40;6.90;99.90
25342;DHT22;13298;48.792;9.154;2024-02-28T00:58:06;6.90;99.90
25342;DHT22;13298;48.792;9.154;2024-02-28T01:00:32;6.90;99.90
25342;DHT22;13298;48.792;9.154;2024-02-28T01:02:57;6.90;99.90
25342;DHT22;13298;48.792;9.154;2024-02-28T01:05:23;6.80;99.90
25342;DHT22;13298;48.792;9.154;2024-02-28T01:07:49;6.80;99.90
25342;DHT22;13298;48.792;9.154;2024-02-28T01:10:15;6.80;99.90
25342;DHT22;13298;48.792;9.154;2024-02-28T01:12:41;6.90;99.90
25342;DHT22;13298;48.792;9.154;2024-02-28T01:15:07;6.90;99.90
25342;DHT22;13298;48.792;9.154;2024-02-28T01:17:33;6.90;99.90
25342;DHT22;13298;48.792;9.154;2024-02-28T01:19:59;6.90;99.90
25342;DHT22;13298;48.792;9.154;2024-02-28T01:22:25;6.90;99.90
25342;DHT22;13298;48.792;9.154;2024-02-28T01:24:50;6.80;99.90
25342;DHT22;13298;48.792;9.154;2024-02-28T01:27:16;6.80;99.90
25342;DHT22;13298;48.792;9.154;2024-02-28T01:29:41;6.90;99.90
25342;DHT22;13298;48.792;9.154;2024-02-28T01:32:08;6.80;99.90
25342;DHT22;13298;48.792;9.154;2024-02-28T01:34:33;6.80;99.90
25342;DHT22;13298;48.792;9.154;2024-02-28T01:36:59;6.80;99.90
25342;DHT22;13298;48.792;9.154;2024-02-28T01:39:25;6.80;99.90
25342;DHT22;13298;48.792;9.154;2024-02-28T01:41:54;6.80;99.90
25342;DHT22;13298;48.792;9.154;2024-02-28T01:44:20;6.80;99.90
25342;DHT22;13298;48.792;9.154;2024-02-28T01:46:47;6.80;99.90
25342;DHT22;13298;48.792;9.154;2024-02-28T01:49:13;6.80;99.90
25342;DHT22;13298;48.792;9.154;2024-02-28T01:51:41;6.80;99.90
25342;DHT22;13298;48.792;9.154;2024-02-28T01:54:08;6.80;99.90
25342;DHT22;13298;48.792;9.154;2024-02-28T01:56:34;6.80;99.90
25342;DHT22;13298;48.792;9.154;2024-02-28T01:59:00;6.70;99.90
25342;DHT22;13298;48.792;9.154;2024-02-28T02:01:27;6.80;99.90
25342;DHT22;13298;48.792;9.154;2024-02-28T02:03:54;6.80;99.90
25342;DHT22;13298;48.792;9.154;2024-02-28T02:06:20;6.70;99.90
25342;DHT22;13298;48.792;9.154;2024-02-28T02:08:47;6.70;99.90
25342;DHT22;13298;48.792;9.154;2024-02-28T02:11:16;6.60;99.90
25342;DHT22;13298;48.792;9.154;2024-02-28T02:13:48;6.60;99.90
25342;DHT22;13298;48.792;9.154;2024-02-28T02:16:15;6.60;99.90
25342;DHT22;13298;48.792;9.154;2024-02-28T02:18:41;6.50;99.90
25342;DHT22;13298;48.792;9.154;2024-02-28T02:21:06;6.50;99.90
25342;DHT22;13298;48.792;9.154;2024-02-28T02:23:34;6.50;99.90
25342;DHT22;13298;48.792;9.154;2024-02-28T02:26:01;6.40;99.90
25342;DHT22;13298;48.792;9.154;2024-02-28T02:28:26;6.40;99.90
25342;DHT22;13298;48.792;9.154;2024-02-28T02:30:52;6.40;99.90
25342;DHT22;13298;48.792;9.154;2024-02-28T02:33:18;6.30;99.90
25342;DHT22;13298;48.792;9.154;2024-02-28T02:35:44;6.30;99.90
25342;DHT22;13298;48.792;9.154;2024-02-28T02:38:09;6.30;99.90
25342;DHT22;13298;48.792;9.154;2024-02-28T02:40:35;6.30;99.90
25342;DHT22;13298;48.792;9.154;2024-02-28T02:43:01;6.30;99.90
25342;DHT22;13298;48.792;9.154;2024-02-28T02:45:26;6.30;99.90
25342;DHT22;13298;48.792;9.154;2024-02-28T02:47:52;6.30;99.90
25342;DHT22;13298;48.792;9.154;2024-02-28T02:50:18;6.30;99.90
25342;DHT22;13298;48.792;9.154;2024-02-28T02:52:43;6.30;99.90
25342;DHT22;13298;48.792;9.154;2024-02-28T02:55:09;6.30;99.90
25342;DHT22;13298;48.792;9.154;2024-02-28T02:57:35;6.30;99.90
25342;DHT22;13298;48.792;9.154;2024-02-28T03:00:01;6.30;99.90
25342;DHT22;13298;48.792;9.154;2024-02-28T03:02:27;6.30;99.90
25342;DHT22;13298;48.792;9.154;2024-02-28T03:04:52;6.30;99.90
25342;DHT22;13298;48.792;9.154;2024-02-28T03:07:18;6.30;99.90
25342;DHT22;13298;48.792;9.154;2024-02-28T03:09:44;6.30;99.90
25342;DHT22;13298;48.792;9.154;2024-02-28T03:12:09;6.30;99.90
25342;DHT22;13298;48.792;9.154;2024-02-28T03:14:35;6.30;99.90
25342;DHT22;13298;48.792;9.154;2024-02-28T03:17:01;6.30;99.90
25342;DHT22;13298;48.792;9.154;2024-02-28T03:19:27;6.30;99.90
25342;DHT22;13298;48.792;9.154;2024-02-28T03:21:53;6.30;99.90
25342;DHT22;13298;48.792;9.154;2024-02-28T03:24:19;6.20;99.90
25342;DHT22;13298;48.792;9.154;2024-02-28T03:26:44;6.20;99.90
25342;DHT22;13298;48.792;9.154;2024-02-28T03:29:10;6.20;99.90
25342;DHT22;13298;48.792;9.154;2024-02-28T03:31:36;6.10;99.90
25342;DHT22;13298;48.792;9.154;2024-02-28T03:34:01;6.10;99.90
25342;DHT22;13298;48.792;9.154;2024-02-28T03:36:28;6.10;99.90
25342;DHT22;13298;48.792;9.154;2024-02-28T03:38:54;6.10;99.90
25342;DHT22;13298;48.792;9.154;2024-02-28T03:41:19;6.10;99.90
25342;DHT22;13298;48.792;9.154;2024-02-28T03:43:45;6.10;99.90
25342;DHT22;13298;48.792;9.154;2024-02-28T03:46:11;6.20;99.90
25342;DHT22;13298;48.792;9.154;2024-02-28T03:48:36;6.20;99.90
25342;DHT22;13298;48.792;9.154;2024-02-28T03:51:02;6.20;99.90
25342;DHT22;13298;48.792;9.154;2024-02-28T03:53:28;6.20;99.90
25342;DHT22;13298;48.792;9.154;2024-02-28T03:55:54;6.10;99.90
25342;DHT22;13298;48.792;9.154;2024-02-28T03:58:19;6.10;99.90
25342;DHT22;13298;48.792;9.154;2024-02-28T04:00:45;6.10;99.90
25342;DHT22;13298;48.792;9.154;2024-02-28T04:03:11;6.10;99.90
25342;DHT22;13298;48.792;9.154;2024-02-28T04:05:37;6.10;99.90
25342;DHT22;13298;48.792;9.154;2024-02-28T04:08:03;6.10;99.90
25342;DHT22;13298;48.792;9.154;2024-02-28T04:10:29;6.10;99.90
25342;DHT22;13298;48.792;9.154;2024-02-28T04:12:54;6.10;99.90
25342;DHT22;13298;48.792;9.154;2024-02-28T04:15:20;6.10;99.90
25342;DHT22;13298;48.792;9.154;2024-02-28T04:17:46;6.20;99.90
25342;DHT22;13298;48.792;9.154;2024-02-28T04:20:12;6.10;99.90
25342;DHT22;13298;48.792;9.154;2024-02-28T04:22:38;6.10;99.90
25342;DHT22;13298;48.792;9.154;2024-02-28T04:25:08;6.10;99.90
25342;DHT22;13298;48.792;9.154;2024-02-28T04:27:35;6.10;99.90
25342;DHT22;13298;48.792;9.154;2024-02-28T04:30:01;6.00;99.90
25342;DHT22;13298;48.792;9.154;2024-02-28T04:32:27;6.00;99.90
25342;DHT22;13298;48.792;9.154;2024-02-28T04:34:52;6.00;99.90
25342;DHT22;13298;48.792;9.154;2024-02-28T04:37:18;6.00;99.90
25342;DHT22;13298;48.792;9.154;2024-02-28T04:39:44;6.00;99.90
25342;DHT22;13298;48.792;9.154;2024-02-28T04:42:10;6.00;99.90
25342;DHT22;13298;48.792;9.154;2024-02-28T04:44:35;6.00;99.90
25342;DHT22;13298;48.792;9.154;2024-02-28T04:47:01;5.90;99.90
25342;DHT22;13298;48.792;9.154;2024-02-28T04:49:28;5.90;99.90
25342;DHT22;13298;48.792;9.154;2024-02-28T04:51:53;5.90;99.90
25342;DHT22;13298;48.792;9.154;2024-02-28T04:54:19;5.90;99.90
25342;DHT22;13298;48.792;9.154;2024-02-28T04:56:45;5.80;99.90
25342;DHT22;13298;48.792;9.154;2024-02-28T04:59:12;5.80;99.90
25342;DHT22;13298;48.792;9.154;2024-02-28T05:01:38;5.80;99.90
25342;DHT22;13298;48.792;9.154;2024-02-28T05:04:06;5.80;99.90
25342;DHT22;13298;48.792;9.154;2024-02-28T05:06:32;5.80;99.90
25342;DHT22;13298;48.792;9.154;2024-02-28T05:08:58;5.80;99.90
25342;DHT22;13298;48.792;9.154;2024-02-28T05:11:23;5.80;99.90
25342;DHT22;13298;48.792;9.154;2024-02-28T05:13:49;5.80;99.90
25342;DHT22;13298;48.792;9.154;2024-02-28T05:16:15;5.80;99.90
25342;DHT22;13298;48.792;9.154;2024-02-28T05:18:43;5.80;99.90
25342;DHT22;13298;48.792;9.154;2024-02-28T05:21:10;5.70;99.90
25342;DHT22;13298;48.792;9.154;2024-02-28T05:23:36;5.70;99.90
25342;DHT22;13298;48.792;9.154;2024-02-28T05:26:02;5.70;99.90
25342;DHT22;13298;48.792;9.154;2024-02-28T05:28:35;5.70;99.90
25342;DHT22;13298;48.792;9.154;2024-02-28T05:31:22;5.70;99.90
25342;DHT22;13298;48.792;9.154;2024-02-28T05:33:51;5.70;99.90
25342;DHT22;13298;48.792;9.154;2024-02-28T05:36:18;5.70;99.90
25342;DHT22;13298;48.792;9.154;2024-02-28T05:38:47;5.70;99.90
25342;DHT22;13298;48.792;9.154;2024-02-28T05:41:13;5.70;99.90
25342;DHT22;13298;48.792;9.154;2024-02-28T05:43:40;5.70;99.90
25342;DHT22;13298;48.792;9.154;2024-02-28T05:46:06;5.70;99.90
25342;DHT22;13298;48.792;9.154;2024-02-28T05:48:32;5.60;99.90
25342;DHT22;13298;48.792;9.154;2024-02-28T05:50:58;5.60;99.90
25342;DHT22;13298;48.792;9.154;2024-02-28T05:53:25;5.60;99.90
25342;DHT22;13298;48.792;9.154;2024-02-28T05:55:52;5.60;99.90
25342;DHT22;13298;48.792;9.154;2024-02-28T05:58:19;5.60;99.90
25342;DHT22;13298;48.792;9.154;2024-02-28T06:00:45;5.60;99.90
25342;DHT22;13298;48.792;9.154;2024-02-28T06:03:11;5.60;99.90
25342;DHT22;13298;48.792;9.154;2024-02-28T06:05:36;5.60;99.90
25342;DHT22;13298;48.792;9.154;2024-02-28T06:08:02;5.60;99.90
25342;DHT22;13298;48.792;9.154;2024-02-28T06:10:28;5.60;99.90
25342;DHT22;13298;48.792;9.154;2024-02-28T06:12:53;5.60;99.90
25342;DHT22;13298;48.792;9.154;2024-02-28T06:15:19;5.60;99.90
25342;DHT22;13298;48.792;9.154;2024-02-28T06:17:45;5.60;99.90
25342;DHT22;13298;48.792;9.154;2024-02-28T06:20:11;5.60;99.90
25342;DHT22;13298;48.792;9.154;2024-02-28T06:22:36;5.60;99.90
25342;DHT22;13298;48.792;9.154;2024-02-28T06:25:02;5.60;99.90
25342;DHT22;13298;48.792;9.154;2024-02-28T06:27:32;5.50;99.90
25342;DHT22;13298;48.792;9.154;2024-02-28T06:29:59;5.60;99.90
25342;DHT22;13298;48.792;9.154;2024-02-28T06:32:24;5.60;99.90
25342;DHT22;13298;48.792;9.154;2024-02-28T06:34:50;5.60;99.90
25342;DHT22;13298;48.792;9.154;2024-02-28T06:37:16;5.60;99.90
25342;DHT22;13298;48.792;9.154;2024-02-28T06:39:42;5.60;99.90
25342;DHT22;13298;48.792;9.154;2024-02-28T06:42:07;5.60;99.90
25342;DHT22;13298;48.792;9.154;2024-02-28T06:44:33;5.60;99.90
25342;DHT22;13298;48.792;9.154;2024-02-28T06:46:59;5.70;99.90
25342;DHT22;13298;48.792;9.154;2024-02-28T06:49:24;5.70;99.90
25342;DHT22;13298;48.792;9.154;2024-02-28T06:51:51;5.70;99.90
25342;DHT22;13298;48.792;9.154;2024-02-28T06:54:16;5.70;99.90
25342;DHT22;13298;48.792;9.154;2024-02-28T06:56:42;5.70;99.90
25342;DHT22;13298;48.792;9.154;2024-02-28T06:59:08;5.70;99.90
25342;DHT22;13298;48.792;9.154;2024-02-28T07:01:33;5.70;99.90
25342;DHT22;13298;48.792;9.154;2024-02-28T07:03:59;5.70;99.90
25342;DHT22;13298;48.792;9.154;2024-02-28T07:06:25;5.70;99.90
25342;DHT22;13298;48.792;9.154;2024-02-28T07:08:50;5.70;99.90
25342;DHT22;13298;48.792;9.154;2024-02-28T07:11:16;5.80;99.90
25342;DHT22;13298;48.792;9.154;2024-02-28T07:13:42;5.80;99.90
25342;DHT22;13298;48.792;9.154;2024-02-28T07:16:07;5.80;99.90
25342;DHT22;13298;48.792;9.154;2024-02-28T07:18:33;5.90;99.90
25342;DHT22;13298;48.792;9.154;2024-02-28T07:20:59;5.90;99.90
25342;DHT22;13298;48.792;9.154;2024-02-28T07:23:25;5.90;99.90
25342;DHT22;13298;48.792;9.154;2024-02-28T07:25:51;5.90;99.90
25342;DHT22;13298;48.792;9.154;2024-02-28T07:28:17;5.90;99.90
25342;DHT22;13298;48.792;9.154;2024-02-28T07:30:43;5.90;99.90
25342;DHT22;13298;48.792;9.154;2024-02-28T07:33:10;5.90;99.90
25342;DHT22;13298;48.792;9.154;2024-02-28T07:35:49;5.90;99.90
25342;DHT22;13298;48.792;9.154;2024-02-28T07:38:17;6.00;99.90
25342;DHT22;13298;48.792;9.154;2024-02-28T07:40:45;6.00;99.90
25342;DHT22;13298;48.792;9.154;2024-02-28T07:43:12;6.00;99.90
25342;DHT22;13298;48.792;9.154;2024-02-28T07:45:39;6.00;99.90
25342;DHT22;13298;48.792;9.154;2024-02-28T07:48:04;6.10;99.90
25342;DHT22;13298;48.792;9.154;2024-02-28T07:50:31;6.10;99.90
25342;DHT22;13298;48.792;9.154;2024-02-28T07:52:56;6.10;99.90
25342;DHT22;13298;48.792;9.154;2024-02-28T07:55:22;6.20;99.90
25342;DHT22;13298;48.792;9.154;2024-02-28T07:57:52;6.20;99.90
25342;DHT22;13298;48.792;9.154;2024-02-28T08:00:19;6.30;99.90
25342;DHT22;13298;48.792;9.154;2024-02-28T08:02:46;6.30;99.90
25342;DHT22;13298;48.792;9.154;2024-02-28T08:05:13;6.30;99.90
25342;DHT22;13298;48.792;9.154;2024-02-28T08:07:40;6.30;99.90
25342;DHT22;13298;48.792;9.154;2024-02-28T08:10:07;6.30;99.90
25342;DHT22;13298;48.792;9.154;2024-02-28T08:12:35;6.30;99.90
25342;DHT22;13298;48.792;9.154;2024-02-28T08:15:02;6.40;99.90
25342;DHT22;13298;48.792;9.154;2024-02-28T08:17:28;6.40;99.90
25342;DHT22;13298;48.792;9.154;2024-02-28T08:19:54;6.30;99.90
25342;DHT22;13298;48.792;9.154;2024-02-28T08:22:20;6.40;99.90
25342;DHT22;13298;48.792;9.154;2024-02-28T08:24:45;6.40;99.90
25342;DHT22;13298;48.792;9.154;2024-02-28T08:27:11;6.40;99.90
25342;DHT22;13298;48.792;9.154;2024-02-28T08:29:40;6.40;99.90
25342;DHT22;13298;48.792;9.154;2024-02-28T08:32:09;6.40;99.90
25342;DHT22;13298;48.792;9.154;2024-02-28T08:34:35;6.40;99.90
25342;DHT22;13298;48.792;9.154;2024-02-28T08:37:01;6.40;99.90
25342;DHT22;13298;48.792;9.154;2024-02-28T08:39:26;6.40;99.90
25342;DHT22;13298;48.792;9.154;2024-02-28T08:41:52;6.40;99.90
25342;DHT22;13298;48.792;9.154;2024-02-28T08:44:18;6.50;99.90
25342;DHT22;13298;48.792;9.154;2024-02-28T08:46:49;6.50;99.90
25342;DHT22;13298;48.792;9.154;2024-02-28T08:49:15;6.50;99.90
25342;DHT22;13298;48.792;9.154;2024-02-28T08:51:40;6.40;99.90
25342;DHT22;13298;48.792;9.154;2024-02-28T08:54:06;6.30;99.90
25342;DHT22;13298;48.792;9.154;2024-02-28T08:56:32;6.30;99.90
25342;DHT22;13298;48.792;9.154;2024-02-28T08:58:58;6.30;99.90
25342;DHT22;13298;48.792;9.154;2024-02-28T09:01:24;6.40;99.90
25342;DHT22;13298;48.792;9.154;2024-02-28T09:03:50;6.40;99.90
25342;DHT22;13298;48.792;9.154;2024-02-28T09:06:16;6.50;99.90
25342;DHT22;13298;48.792;9.154;2024-02-28T09:08:42;6.60;99.90
25342;DHT22;13298;48.792;9.154;2024-02-28T09:11:08;6.60;99.90
25342;DHT22;13298;48.792;9.154;2024-02-28T09:13:33;6.60;99.90
25342;DHT22;13298;48.792;9.154;2024-02-28T09:16:01;6.70;99.90
25342;DHT22;13298;48.792;9.154;2024-02-28T09:18:27;6.80;99.90
25342;DHT22;13298;48.792;9.154;2024-02-28T09:20:53;6.80;99.90
25342;DHT22;13298;48.792;9.154;2024-02-28T09:23:19;6.90;99.90
25342;DHT22;13298;48.792;9.154;2024-02-28T09:25:44;6.90;99.90
25342;DHT22;13298;48.792;9.154;2024-02-28T09:28:10;7.00;99.90
25342;DHT22;13298;48.792;9.154;2024-02-28T09:30:39;7.10;99.90
25342;DHT22;13298;48.792;9.154;2024-02-28T09:33:04;7.10;99.90
25342;DHT22;13298;48.792;9.154;2024-02-28T09:35:30;7.20;99.90
25342;DHT22;13298;48.792;9.154;2024-02-28T09:37:56;7.30;99.90
25342;DHT22;13298;48.792;9.154;2024-02-28T09:40:22;7.40;99.90
25342;DHT22;13298;48.792;9.154;2024-02-28T09:42:52;7.40;99.90
25342;DHT22;13298;48.792;9.154;2024-02-28T09:45:20;7.50;99.90
25342;DHT22;13298;48.792;9.154;2024-02-28T09:47:47;7.50;99.90
25342;DHT22;13298;48.792;9.154;2024-02-28T09:50:13;7.60;99.90
25342;DHT22;13298;48.792;9.154;2024-02-28T09:52:40;7.60;99.90
25342;DHT22;13298;48.792;9.154;2024-02-28T09:55:05;7.60;99.90
25342;DHT22;13298;48.792;9.154;2024-02-28T09:57:32;7.70;99.90
25342;DHT22;13298;48.792;9.154;2024-02-28T10:00:00;7.80;99.90
25342;DHT22;13298;48.792;9.154;2024-02-28T10:02:26;7.90;99.90
25342;DHT22;13298;48.792;9.154;2024-02-28T10:04:54;8.00;99.90
25342;DHT22;13298;48.792;9.154;2024-02-28T10:07:22;8.00;99.90
25342;DHT22;13298;48.792;9.154;2024-02-28T10:09:48;8.10;99.90
25342;DHT22;13298;48.792;9.154;2024-02-28T10:12:14;8.10;99.90
25342;DHT22;13298;48.792;9.154;2024-02-28T10:14:40;8.10;99.90
25342;DHT22;13298;48.792;9.154;2024-02-28T10:17:06;8.00;99.90
25342;DHT22;13298;48.792;9.154;2024-02-28T10:19:33;8.00;99.90
25342;DHT22;13298;48.792;9.154;2024-02-28T10:21:59;7.90;99.90
25342;DHT22;13298;48.792;9.154;2024-02-28T10:24:25;7.90;99.90
25342;DHT22;13298;48.792;9.154;2024-02-28T10:26:50;7.90;99.90
25342;DHT22;13298;48.792;9.154;2024-02-28T10:29:23;7.90;99.90
25342;DHT22;13298;48.792;9.154;2024-02-28T10:31:58;7.90;99.90
25342;DHT22;13298;48.792;9.154;2024-02-28T10:34:25;7.90;99.90
25342;DHT22;13298;48.792;9.154;2024-02-28T10:36:51;7.90;99.90
25342;DHT22;13298;48.792;9.154;2024-02-28T10:39:17;7.90;99.90
25342;DHT22;13298;48.792;9.154;2024-02-28T10:41:46;7.90;99.90
25342;DHT22;13298;48.792;9.154;2024-02-28T10:44:13;7.90;99.90
25342;DHT22;13298;48.792;9.154;2024-02-28T10:46:39;7.80;99.90
25342;DHT22;13298;48.792;9.154;2024-02-28T10:49:05;7.80;99.90
25342;DHT22;13298;48.792;9.154;2024-02-28T10:51:34;7.70;99.90
25342;DHT22;13298;48.792;9.154;2024-02-28T10:54:10;7.60;99.90
25342;DHT22;13298;48.792;9.154;2024-02-28T10:56:42;7.60;99.90
25342;DHT22;13298;48.792;9.154;2024-02-28T10:59:09;7.70;99.90
25342;DHT22;13298;48.792;9.154;2024-02-28T11:01:38;7.70;99.90
25342;DHT22;13298;48.792;9.154;2024-02-28T11:04:07;7.70;99.90
25342;DHT22;13298;48.792;9.154;2024-02-28T11:06:33;7.70;99.90
25342;DHT22;13298;48.792;9.154;2024-02-28T11:09:00;7.80;99.90
25342;DHT22;13298;48.792;9.154;2024-02-28T11:11:30;7.80;99.90
25342;DHT22;13298;48.792;9.154;2024-02-28T11:13:58;7.70;99.90
25342;DHT22;13298;48.792;9.154;2024-02-28T11:16:31;7.70;99.90
25342;DHT22;13298;48.792;9.154;2024-02-28T11:18:58;7.70;99.90
25342;DHT22;13298;48.792;9.154;2024-02-28T11:21:26;7.80;99.90
25342;DHT22;13298;48.792;9.154;2024-02-28T11:24:01;7.80;99.90
25342;DHT22;13298;48.792;9.154;2024-02-28T11:26:27;7.70;99.90
25342;DHT22;13298;48.792;9.154;2024-02-28T11:28:56;7.70;99.90
25342;DHT22;13298;48.792;9.154;2024-02-28T11:31:21;7.80;99.90
25342;DHT22;13298;48.792;9.154;2024-02-28T11:33:47;7.80;99.90
25342;DHT22;13298;48.792;9.154;2024-02-28T11:36:14;7.90;99.90
25342;DHT22;13298;48.792;9.154;2024-02-28T11:38:40;8.00;99.90
25342;DHT22;13298;48.792;9.154;2024-02-28T11:41:07;8.00;99.90
25342;DHT22;13298;48.792;9.154;2024-02-28T11:43:33;8.00;99.90
25342;DHT22;13298;48.792;9.154;2024-02-28T11:46:08;8.00;99.90
25342;DHT22;13298;48.792;9.154;2024-02-28T11:48:35;8.00;99.90
25342;DHT22;13298;48.792;9.154;2024-02-28T11:51:01;8.00;99.90
25342;DHT22;13298;48.792;9.154;2024-02-28T11:53:27;8.00;99.90
25342;DHT22;13298;48.792;9.154;2024-02-28T11:55:53;7.90;99.90
25342;DHT22;13298;48.792;9.154;2024-02-28T11:58:21;7.90;99.90
25342;DHT22;13298;48.792;9.154;2024-02-28T12:00:51;7.90;99.90
25342;DHT22;13298;48.792;9.154;2024-02-28T12:03:23;7.90;99.90
25342;DHT22;13298;48.792;9.154;2024-02-28T12:05:51;7.90;99.90
25342;DHT22;13298;48.792;9.154;2024-02-28T12:08:17;8.00;99.90
25342;DHT22;13298;48.792;9.154;2024-02-28T12:10:45;8.00;99.90
25342;DHT22;13298;48.792;9.154;2024-02-28T12:13:20;8.10;99.90
25342;DHT22;13298;48.792;9.154;2024-02-28T12:15:48;8.00;99.90
25342;DHT22;13298;48.792;9.154;2024-02-28T12:18:16;8.00;99.90
25342;DHT22;13298;48.792;9.154;2024-02-28T12:20:42;8.00;99.90
25342;DHT22;13298;48.792;9.154;2024-02-28T12:23:08;8.00;99.90
25342;DHT22;13298;48.792;9.154;2024-02-28T12:25:34;8.00;99.90
25342;DHT22;13298;48.792;9.154;2024-02-28T12:28:05;8.00;99.90
25342;DHT22;13298;48.792;9.154;2024-02-28T12:30:39;8.00;99.90
25342;DHT22;13298;48.792;9.154;2024-02-28T12:33:10;8.00;99.90
25342;DHT22;13298;48.792;9.154;2024-02-28T12:35:39;7.90;99.90
25342;DHT22;13298;48.792;9.154;2024-02-28T12:38:07;7.90;99.90
25342;DHT22;13298;48.792;9.154;2024-02-28T12:40:32;7.90;99.90
25342;DHT22;13298;48.792;9.154;2024-02-28T12:42:58;7.90;99.90
25342;DHT22;13298;48.792;9.154;2024-02-28T12:45:24;7.90;99.90
25342;DHT22;13298;48.792;9.154;2024-02-28T12:47:49;7.90;99.90
25342;DHT22;13298;48.792;9.154;2024-02-28T12:50:15;7.90;99.90
25342;DHT22;13298;48.792;9.154;2024-02-28T12:52:41;7.90;99.90
25342;DHT22;13298;48.792;9.154;2024-02-28T12:55:07;7.80;99.90
25342;DHT22;13298;48.792;9.154;2024-02-28T12:57:32;7.70;99.90
25342;DHT22;13298;48.792;9.154;2024-02-28T12:59:58;7.80;99.90
25342;DHT22;13298;48.792;9.154;2024-02-28T13:02:24;7.80;99.90
25342;DHT22;13298;48.792;9.154;2024-02-28T13:04:50;7.80;99.90
25342;DHT22;13298;48.792;9.154;2024-02-28T13:07:15;7.80;99.90
25342;DHT22;13298;48.792;9.154;2024-02-28T13:09:41;7.80;99.90
25342;DHT22;13298;48.792;9.154;2024-02-28T13:12:07;7.80;99.90
25342;DHT22;13298;48.792;9.154;2024-02-28T13:14:34;7.80;99.90
25342;DHT22;13298;48.792;9.154;2024-02-28T13:16:59;7.80;99.90
25342;DHT22;13298;48.792;9.154;2024-02-28T13:19:25;7.90;99.90
25342;DHT22;13298;48.792;9.154;2024-02-28T13:21:51;7.90;99.90
25342;DHT22;13298;48.792;9.154;2024-02-28T13:24:16;7.80;99.90
25342;DHT22;13298;48.792;9.154;2024-02-28T13:26:42;7.70;99.90
25342;DHT22;13298;48.792;9.154;2024-02-28T13:29:08;7.70;99.90
25342;DHT22;13298;48.792;9.154;2024-02-28T13:31:34;7.60;99.90
25342;DHT22;13298;48.792;9.154;2024-02-28T13:34:00;7.60;99.90
25342;DHT22;13298;48.792;9.154;2024-02-28T13:36:28;7.50;99.90
25342;DHT22;13298;48.792;9.154;2024-02-28T13:38:55;7.50;99.90
25342;DHT22;13298;48.792;9.154;2024-02-28T13:41:21;7.50;99.90
25342;DHT22;13298;48.792;9.154;2024-02-28T13:43:47;7.50;99.90
25342;DHT22;13298;48.792;9.154;2024-02-28T13:46:12;7.40;99.90
25342;DHT22;13298;48.792;9.154;2024-02-28T13:48:39;7.40;99.90
25342;DHT22;13298;48.792;9.154;2024-02-28T13:51:05;7.40;99.90
25342;DHT22;13298;48.792;9.154;2024-02-28T13:53:31;7.50;99.90
25342;DHT22;13298;48.792;9.154;2024-02-28T13:55:57;7.50;99.90
25342;DHT22;13298;48.792;9.154;2024-02-28T13:58:22;7.60;99.90
25342;DHT22;13298;48.792;9.154;2024-02-28T14:00:48;7.60;99.90
25342;DHT22;13298;48.792;9.154;2024-02-28T14:03:14;7.70;99.90
25342;DHT22;13298;48.792;9.154;2024-02-28T14:05:40;7.80;99.90
25342;DHT22;13298;48.792;9.154;2024-02-28T14:08:06;7.90;99.90
25342;DHT22;13298;48.792;9.154;2024-02-28T14:10:37;7.90;99.90
25342;DHT22;13298;48.792;9.154;2024-02-28T14:13:04;7.90;99.90
25342;DHT22;13298;48.792;9.154;2024-02-28T14:15:29;7.80;99.90
25342;DHT22;13298;48.792;9.154;2024-02-28T14:17:55;7.80;99.90
25342;DHT22;13298;48.792;9.154;2024-02-28T14:20:21;7.70;99.90
25342;DHT22;13298;48.792;9.154;2024-02-28T14:22:46;7.60;99.90
25342;DHT22;13298;48.792;9.154;2024-02-28T14:25:14;7.60;99.90
25342;DHT22;13298;48.792;9.154;2024-02-28T14:27:45;7.60;99.90
25342;DHT22;13298;48.792;9.154;2024-02-28T14:30:11;7.60;99.90
25342;DHT22;13298;48.792;9.154;2024-02-28T14:32:39;7.60;99.90
25342;DHT22;13298;48.792;9.154;2024-02-28T14:35:06;7.60;99.90
25342;DHT22;13298;48.792;9.154;2024-02-28T14:37:34;7.60;99.90
25342;DHT22;13298;48.792;9.154;2024-02-28T14:40:02;7.60;99.90
25342;DHT22;13298;48.792;9.154;2024-02-28T14:42:35;7.70;99.90
25342;DHT22;13298;48.792;9.154;2024-02-28T14:45:08;7.70;99.90
25342;DHT22;13298;48.792;9.154;2024-02-28T14:47:36;7.60;99.90
25342;DHT22;13298;48.792;9.154;2024-02-28T14:50:06;7.60;99.90
25342;DHT22;13298;48.792;9.154;2024-02-28T14:52:36;7.70;99.90
25342;DHT22;13298;48.792;9.154;2024-02-28T14:55:06;7.80;99.90
25342;DHT22;13298;48.792;9.154;2024-02-28T14:57:34;7.70;99.90
25342;DHT22;13298;48.792;9.154;2024-02-28T15:00:01;7.70;99.90
25342;DHT22;13298;48.792;9.154;2024-02-28T15:02:32;7.70;99.90
25342;DHT22;13298;48.792;9.154;2024-02-28T15:04:58;7.70;99.90
25342;DHT22;13298;48.792;9.154;2024-02-28T15:07:25;7.70;99.90
25342;DHT22;13298;48.792;9.154;2024-02-28T15:09:51;7.70;99.90
25342;DHT22;13298;48.792;9.154;2024-02-28T15:12:16;7.70;99.90
25342;DHT22;13298;48.792;9.154;2024-02-28T15:14:42;7.60;99.90
25342;DHT22;13298;48.792;9.154;2024-02-28T15:17:08;7.60;99.90
25342;DHT22;13298;48.792;9.154;2024-02-28T15:19:33;7.60;99.90
25342;DHT22;13298;48.792;9.154;2024-02-28T15:21:59;7.50;99.90
25342;DHT22;13298;48.792;9.154;2024-02-28T15:24:25;7.50;99.90
25342;DHT22;13298;48.792;9.154;2024-02-28T15:26:52;7.40;99.90
25342;DHT22;13298;48.792;9.154;2024-02-28T15:29:17;7.40;99.90
25342;DHT22;13298;48.792;9.154;2024-02-28T15:31:44;7.30;99.90
25342;DHT22;13298;48.792;9.154;2024-02-28T15:34:10;7.30;99.90
25342;DHT22;13298;48.792;9.154;2024-02-28T15:36:36;7.30;99.90
25342;DHT22;13298;48.792;9.154;2024-02-28T15:39:01;7.30;99.90
25342;DHT22;13298;48.792;9.154;2024-02-28T15:41:28;7.30;99.90